This is the latest recevied weather packets stored in our database for station/object N5SRF. If no packets are shown the sender has not sent any weather packets the latest 10 day(s).
| Time | Temp. | Humidity | Pressure | Rain* | Wind** | Luminosity | Snow |
|---|---|---|---|---|---|---|---|
| 1787926632 | 31.67° C | 75% | 1021.3 hPa | 0 mm | - | 119 W/m² | - |
| 1787926331 | 31.11° C | 77% | 1021.3 hPa | 0 mm | - | 271 W/m² | - |
| 1787926026 | 30.56° C | 78% | 1021 hPa | 0 mm | - | 264 W/m² | - |
| 1787925725 | 30° C | 81% | 1021.2 hPa | 0 mm | - | 253 W/m² | - |
| 1787925419 | 30° C | 79% | 1021.1 hPa | 0 mm | - | 171 W/m² | - |
| 1787925114 | 29.44° C | 81% | 1021 hPa | 0 mm | - | 73 W/m² | - |
| 1787924812 | 29.44° C | 82% | 1021.2 hPa | 0 mm | - | 184 W/m² | - |
| 1787924507 | 29.44° C | 81% | 1021 hPa | 0 mm | - | 85 W/m² | - |
| 1787924203 | 30° C | 79% | 1021 hPa | 0 mm | - | 175 W/m² | - |
| 1787923898 | 29.44° C | 81% | 1020.9 hPa | 0 mm | - | 74 W/m² | - |
| 1787923597 | 28.89° C | 82% | 1021.2 hPa | 0 mm | - | 112 W/m² | - |
| 1787923293 | 28.89° C | 82% | 1021.1 hPa | 0 mm | - | 136 W/m² | - |
| 1787922988 | 29.44° C | 81% | 1020.8 hPa | 0 mm | - | 120 W/m² | - |
| 1787922687 | 28.89° C | 83% | 1021.1 hPa | 0 mm | - | 108 W/m² | - |
| 1787922387 | 28.33° C | 84% | 1021 hPa | 0 mm | - | 96 W/m² | - |
| 1787922086 | 27.22° C | 87% | 1020.9 hPa | 0 mm | - | 85 W/m² | - |
| 1787921784 | 27.22° C | 87% | 1020.8 hPa | 0 mm | - | 75 W/m² | - |
| 1787921479 | 26.67° C | 88% | 1020.6 hPa | 0 mm | - | 66 W/m² | - |
| 1787921173 | 26.67° C | 88% | 1020.9 hPa | 0 mm | - | 56 W/m² | - |
| 1787920869 | 26.11° C | 91% | 1020.5 hPa | 0 mm | - | 47 W/m² | - |
| 1787920569 | 26.11° C | 92% | 1020.7 hPa | 0 mm | - | 40 W/m² | - |
| 1787920263 | 25.56° C | 92% | 1020.8 hPa | 0 mm | - | 34 W/m² | - |
| 1787919955 | 25° C | 93% | 1020.8 hPa | 0 mm | - | 27 W/m² | - |
| 1787919655 | 25° C | 93% | 1020.5 hPa | 0 mm | - | 22 W/m² | - |
| 1787919350 | 24.44° C | 93% | 1020.5 hPa | 0 mm | - | 17 W/m² | - |
* Rain latest hour (hover to see other rain measurements)
** Current wind speed in m/s (hover to see current wind gust speed)